Abel Tasman — PCVM — position and weather

sailwx.info

Track history (hours):
 
Tides and Currents Weather Stations Pressure Air Temp Water Temp Dewpoint Dewpoint Depression Visibility Wind Speed Wind Dir Waves Ship Positions

Abel Tasman (Netherlands)

Last reported at 2019-Apr-25 15:43 UTC. Time now 2019-Apr-25 16:24 UTC.
Position N 54°54' E 009°47'.

Length 38 m; draft 2.4 m.

Type: Sailing vessel. MMSI: 245877000.

Date/timePositionNaut miles runAvg speedWind from/ knotsBaromVisibWave heightAir tempDewpointWater temp
2019-Apr-25 15:43N 54°54' E 009°47'1 3.1
2019-Apr-25 15:27N 54°54' E 009°47'3 6.5
2019-Apr-25 15:00N 54°52' E 009°51'4 7.2
2019-Apr-25 14:30N 54°49' E 009°56'3 6.8
2019-Apr-25 14:00N 54°47' E 010°00'2 4.5
2019-Apr-25 13:30N 54°47' E 010°04'3 5.5
2019-Apr-25 13:00N 54°48' E 010°09'3 5.3
2019-Apr-25 12:30N 54°48' E 010°13'2 4.7
2019-Apr-25 12:00N 54°48' E 010°17'2 4.2
2019-Apr-25 11:29N 54°48' E 010°21'2 3.8
2019-Apr-25 11:00N 54°49' E 010°24'1 2.1
2019-Apr-25 10:30N 54°49' E 010°26'1 2.3
2019-Apr-25 09:58N 54°49' E 010°28'1 2.4
2019-Apr-25 09:28N 54°49' E 010°30'1 2.7
2019-Apr-25 09:00N 54°49' E 010°32'2 3.8
2019-Apr-25 08:30N 54°51' E 010°31'0 0.0
2019-Apr-25 08:00N 54°51' E 010°31'0 0.0
2019-Apr-25 07:30N 54°51' E 010°31'0 0.0
2019-Apr-25 07:00N 54°51' E 010°31'0 0.0
2019-Apr-25 06:27N 54°51' E 010°31'0 0.0
2019-Apr-25 06:00N 54°51' E 010°31'0 0.0
2019-Apr-25 05:30N 54°51' E 010°31'0 0.0
2019-Apr-25 05:00N 54°51' E 010°31'0 0.0
2019-Apr-25 04:30N 54°51' E 010°31'0 0.0
2019-Apr-25 04:00N 54°51' E 010°31'0 0.0
2019-Apr-25 03:30N 54°51' E 010°31'0 0.0
2019-Apr-25 03:00N 54°51' E 010°31'0 0.0
2019-Apr-25 02:30N 54°51' E 010°31'0 0.0
2019-Apr-25 02:00N 54°51' E 010°31'0 0.0
2019-Apr-25 01:30N 54°51' E 010°31'0 0.0
2019-Apr-25 01:00N 54°51' E 010°31'0 0.0
2019-Apr-25 00:30N 54°51' E 010°31'0 0.0
2019-Apr-25 00:00N 54°51' E 010°31'0 0.0
2019-Apr-24 23:30N 54°51' E 010°31'0 0.0
2019-Apr-24 23:00N 54°51' E 010°31'0 0.0
2019-Apr-24 22:30N 54°51' E 010°31'0 0.0
2019-Apr-24 22:00N 54°51' E 010°31'0 0.0
2019-Apr-24 21:30N 54°51' E 010°31'0 0.0
2019-Apr-24 20:57N 54°51' E 010°31'0 0.0
2019-Apr-24 20:30N 54°51' E 010°31'0 0.0
2019-Apr-24 19:57N 54°51' E 010°31'0 0.0
2019-Apr-24 19:30N 54°51' E 010°31'0 0.0
2019-Apr-24 18:57N 54°51' E 010°31'0 0.0
2019-Apr-24 18:30N 54°51' E 010°31'0 0.0
2019-Apr-24 18:00N 54°51' E 010°31'0 0.0
2019-Apr-24 17:30N 54°51' E 010°31'0 0.0
2019-Apr-24 17:00N 54°51' E 010°31'0 0.0
2019-Apr-24 16:27N 54°51' E 010°31'0 0.0
2019-Apr-24 16:00N 54°51' E 010°31'0 0.0
2019-Apr-24 15:30N 54°51' E 010°31'0 0.0
2019-Apr-24 14:57N 54°51' E 010°31'0 0.0
2019-Apr-24 14:30N 54°51' E 010°31'0 0.0
2019-Apr-24 14:00N 54°51' E 010°31'1 1.1
2019-Apr-24 13:30N 54°51' E 010°32'2 3.6
2019-Apr-24 13:00N 54°49' E 010°32'3 7.0
2019-Apr-24 12:30N 54°46' E 010°29'3 6.9
2019-Apr-24 12:00N 54°43' E 010°26'3 6.5
2019-Apr-24 11:30N 54°40' E 010°23'3 5.8
2019-Apr-24 11:00N 54°38' E 010°22'3 5.9
2019-Apr-24 10:30N 54°35' E 010°19'3 6.2
2019-Apr-24 10:00N 54°32' E 010°17'2 4.8
2019-Apr-24 09:30N 54°30' E 010°15'2 4.3
2019-Apr-24 09:00N 54°28' E 010°14'3 5.6
2019-Apr-24 08:30N 54°25' E 010°12'1 2.4
2019-Apr-24 08:00N 54°24' E 010°13'0 0.1
2019-Apr-24 07:29N 54°24' E 010°13'0 0.0
2019-Apr-24 07:00N 54°24' E 010°13'0 0.0
2019-Apr-24 06:30N 54°24' E 010°13'0 0.0
2019-Apr-24 06:00N 54°24' E 010°13'0 0.0
2019-Apr-24 05:30N 54°24' E 010°13'0 0.0
2019-Apr-24 05:00N 54°24' E 010°13'0 0.0
2019-Apr-24 04:30N 54°24' E 010°13'0 0.0
2019-Apr-24 04:00N 54°24' E 010°13'0 0.0
2019-Apr-24 03:30N 54°24' E 010°13'0 0.0
2019-Apr-24 03:00N 54°24' E 010°13'0 0.0
2019-Apr-24 02:30N 54°24' E 010°13'0 0.0
2019-Apr-24 02:00N 54°24' E 010°13'0 0.0
2019-Apr-24 01:30N 54°24' E 010°13'0 0.0
2019-Apr-24 01:00N 54°24' E 010°13'0 0.0
2019-Apr-24 00:30N 54°24' E 010°13'0 0.0
2019-Apr-24 00:00N 54°24' E 010°13'0 0.0
2019-Apr-23 23:30N 54°24' E 010°13'0 0.0
2019-Apr-23 23:00N 54°24' E 010°13'0 0.0
2019-Apr-23 22:30N 54°24' E 010°13'0 0.0
2019-Apr-23 22:00N 54°24' E 010°13'0 0.0
2019-Apr-23 21:30N 54°24' E 010°13'0 0.0
2019-Apr-23 21:00N 54°24' E 010°13'0 0.0
2019-Apr-23 20:30N 54°24' E 010°13'0 0.0
2019-Apr-23 20:00N 54°24' E 010°13'0 0.0
2019-Apr-23 19:30N 54°24' E 010°13'0 0.0
2019-Apr-23 19:00N 54°24' E 010°13'0 0.0
2019-Apr-23 18:30N 54°24' E 010°13'0 0.0
2019-Apr-23 18:00N 54°24' E 010°13'0 0.0
2019-Apr-23 17:30N 54°24' E 010°13'0 0.0
2019-Apr-23 17:00N 54°24' E 010°13'0 0.0
2019-Apr-23 16:30N 54°24' E 010°13'0 0.0
2019-Apr-23 16:00N 54°24' E 010°13'0 0.0
2019-Apr-23 15:30N 54°24' E 010°13'0 0.6
2019-Apr-23 15:00N 54°24' E 010°13'1 2.9
2019-Apr-23 14:30N 54°26' E 010°14'3 5.4
2019-Apr-23 14:00N 54°23' E 010°12'2 4.1
2019-Apr-23 13:30N 54°22' E 010°09'0 0.0
2019-Apr-23 13:00N 54°22' E 010°09'0 0.0
2019-Apr-23 12:30N 54°22' E 010°09'0 0.0
2019-Apr-23 12:00N 54°22' E 010°09'0 0.0
2019-Apr-23 11:30N 54°22' E 010°09'0 0.0
2019-Apr-23 11:00N 54°22' E 010°09'0 0.0
2019-Apr-23 10:30N 54°22' E 010°09'0 0.0
2019-Apr-23 10:00N 54°22' E 010°09'0 0.0
2019-Apr-23 09:30N 54°22' E 010°09'0 0.0
2019-Apr-23 09:00N 54°22' E 010°09'0 0.0
2019-Apr-23 08:30N 54°22' E 010°09'0 0.0
2019-Apr-23 08:00N 54°22' E 010°09'0 0.0
2019-Apr-23 07:30N 54°22' E 010°09'0 0.0
2019-Apr-23 07:00N 54°22' E 010°09'0 0.0
2019-Apr-23 06:30N 54°22' E 010°09'0 0.0
2019-Apr-23 06:00N 54°22' E 010°09'0 0.0
2019-Apr-23 05:30N 54°22' E 010°09'0 0.0
2019-Apr-23 05:00N 54°22' E 010°09'0 0.0
2019-Apr-23 04:30N 54°22' E 010°09'0 0.0
2019-Apr-23 04:00N 54°22' E 010°09'0 0.0
2019-Apr-23 03:30N 54°22' E 010°09'0 0.0
2019-Apr-23 03:00N 54°22' E 010°09'0 0.0
2019-Apr-23 02:30N 54°22' E 010°09'0 0.0
2019-Apr-23 02:00N 54°22' E 010°09'0 0.0
2019-Apr-23 01:30N 54°22' E 010°09'0 0.0
2019-Apr-23 01:00N 54°22' E 010°09'0 0.0
2019-Apr-23 00:30N 54°22' E 010°09'0 0.0
2019-Apr-23 00:00N 54°22' E 010°09'0 0.0
2019-Apr-22 23:30N 54°22' E 010°09'0 0.0
2019-Apr-22 23:00N 54°22' E 010°09'0 0.0
2019-Apr-22 22:30N 54°22' E 010°09'0 0.0
2019-Apr-22 22:00N 54°22' E 010°09'0 0.0
2019-Apr-22 21:30N 54°22' E 010°09'0 0.0
2019-Apr-22 21:00N 54°22' E 010°09'0 0.0
2019-Apr-22 20:30N 54°22' E 010°09'0 0.0
2019-Apr-22 20:00N 54°22' E 010°09'0 0.0
2019-Apr-22 19:30N 54°22' E 010°09'0 0.0
2019-Apr-22 19:00N 54°22' E 010°09'0 0.0
2019-Apr-22 18:30N 54°22' E 010°09'0 0.0
2019-Apr-22 18:00N 54°22' E 010°09'0 0.0
2019-Apr-22 17:30N 54°22' E 010°09'0 0.0
2019-Apr-22 17:00N 54°22' E 010°09'0 0.0
2019-Apr-22 16:30N 54°22' E 010°09'0 0.0
2019-Apr-22 16:00N 54°22' E 010°09'0 0.0
2019-Apr-22 15:30N 54°22' E 010°09'0 0.0
2019-Apr-22 15:00N 54°22' E 010°09'0 0.0
2019-Apr-22 14:30N 54°22' E 010°09'0 0.0
2019-Apr-22 14:00N 54°22' E 010°09'0 0.0
2019-Apr-22 13:30N 54°22' E 010°09'0 0.0
2019-Apr-22 13:00N 54°22' E 010°09'0 0.0
2019-Apr-22 12:30N 54°22' E 010°09'0 0.0
2019-Apr-22 12:00N 54°22' E 010°09'0 0.2
2019-Apr-22 11:30N 54°22' E 010°09'0 0.6
2019-Apr-22 11:00N 54°22' E 010°08'2 4.6
2019-Apr-22 10:30N 54°22' E 010°05'3 6.7
2019-Apr-22 10:00N 54°21' E 009°59'3 6.2
2019-Apr-22 09:30N 54°21' E 009°54'4 7.1
2019-Apr-22 09:00N 54°22' E 009°48'4 7.4
2019-Apr-22 08:30N 54°19' E 009°43'2 4.1
2019-Apr-22 08:00N 54°18' E 009°40'0 0.0
2019-Apr-22 07:28N 54°18' E 009°40'0 0.0
2019-Apr-22 06:58N 54°18' E 009°40'0 0.0
2019-Apr-22 06:28N 54°18' E 009°40'0 0.0
2019-Apr-22 05:58N 54°18' E 009°40'0 0.0
2019-Apr-22 05:28N 54°18' E 009°40'0 0.0
2019-Apr-22 04:58N 54°18' E 009°40'0 0.0
2019-Apr-22 04:28N 54°18' E 009°40'0 0.0
2019-Apr-22 03:58N 54°18' E 009°40'0 0.0
2019-Apr-22 03:28N 54°18' E 009°40'0 0.0
2019-Apr-22 02:58N 54°18' E 009°40'0 0.0
2019-Apr-22 02:28N 54°18' E 009°40'0 0.0
2019-Apr-22 01:58N 54°18' E 009°40'0 0.0
2019-Apr-22 01:28N 54°18' E 009°40'0 0.0
2019-Apr-22 00:58N 54°18' E 009°40'0 0.0
2019-Apr-22 00:28N 54°18' E 009°40'0 0.0
2019-Apr-21 23:58N 54°18' E 009°40'0 0.0
2019-Apr-21 23:28N 54°18' E 009°40'0 0.0
2019-Apr-21 22:58N 54°18' E 009°40'0 0.0
2019-Apr-21 22:28N 54°18' E 009°40'0 0.0
2019-Apr-21 21:58N 54°18' E 009°40'0 0.0
2019-Apr-21 21:28N 54°18' E 009°40'0 0.0
2019-Apr-21 20:58N 54°18' E 009°40'0 0.0
2019-Apr-21 20:28N 54°18' E 009°40'0 0.0
2019-Apr-21 19:58N 54°18' E 009°40'0 0.0
2019-Apr-21 19:28N 54°18' E 009°40'0 0.0
2019-Apr-21 18:58N 54°18' E 009°40'1 2.7
2019-Apr-21 18:30N 54°19' E 009°42'2 4.6
2019-Apr-21 18:00N 54°17' E 009°39'4 7.4
2019-Apr-21 17:30N 54°14' E 009°36'4 7.1
2019-Apr-21 17:00N 54°12' E 009°32'4 7.3
2019-Apr-21 16:30N 54°10' E 009°26'4 7.2
2019-Apr-21 16:00N 54°09' E 009°21'3 6.4
2019-Apr-21 15:30N 54°05' E 009°19'3 6.6
2019-Apr-21 15:00N 54°02' E 009°18'4 6.6
2019-Apr-21 14:28N 53°59' E 009°16'3 6.1
2019-Apr-21 13:57N 53°56' E 009°13'1 3.0
2019-Apr-21 13:30N 53°55' E 009°12'2 4.7
2019-Apr-21 13:00N 53°54' E 009°09'2 2.5
2019-Apr-21 12:23N 53°53' E 009°07'4 9.1
2019-Apr-21 11:58N 53°51' E 009°01'5 9.1
2019-Apr-21 11:27N 53°50' E 008°53'4 8.8
2019-Apr-21 11:00N 53°51' E 008°46'7 9.1
2019-Apr-21 10:15N 53°56' E 008°39'2 9.2
2019-Apr-21 10:00N 53°57' E 008°36'4 8.3
2019-Apr-21 09:29N 53°58' E 008°29'3 7.0
2019-Apr-21 09:00N 53°59' E 008°23'3 6.0
2019-Apr-21 08:30N 53°59' E 008°18'4 7.3
2019-Apr-21 08:00N 53°59' E 008°12'4 7.4
2019-Apr-21 07:30N 53°58' E 008°06'4 7.0
2019-Apr-21 07:00N 53°58' E 007°60'3 6.3
2019-Apr-21 06:30N 53°57' E 007°55'3 5.3
2019-Apr-21 06:00N 53°56' E 007°50'2 4.7
2019-Apr-21 05:30N 53°56' E 007°47'2 4.4
2019-Apr-21 05:00N 53°55' E 007°43'2 4.4
2019-Apr-21 04:27N 53°55' E 007°39'2 4.2
2019-Apr-21 04:00N 53°54' E 007°36'61 6.9
2019-Apr-20 19:05N 53°38' E 005°56'1 7.9
2019-Apr-20 18:56N 53°38' E 005°54'11 7.5
2019-Apr-20 17:26N 53°34' E 005°36'9 6.7
2019-Apr-20 16:07N 53°31' E 005°22'3 6.1
2019-Apr-20 15:42N 53°30' E 005°19'2 5.8
2019-Apr-20 15:25N 53°29' E 005°16'2 5.7
2019-Apr-20 15:00N 53°28' E 005°13'3 5.5
2019-Apr-20 14:30N 53°26' E 005°09'3 5.4
2019-Apr-20 14:00N 53°25' E 005°05'3 5.3
2019-Apr-20 13:30N 53°23' E 005°01'2 5.0
2019-Apr-20 13:00N 53°21' E 004°59'2 3.4
2019-Apr-20 12:30N 53°20' E 005°01'3 6.8
2019-Apr-20 12:00N 53°19' E 005°07'3 6.1
2019-Apr-20 11:30N 53°17' E 005°10'3 5.7
2019-Apr-20 11:00N 53°14' E 005°11'3 5.6
2019-Apr-20 10:30N 53°14' E 005°16'2 4.8
2019-Apr-20 10:00N 53°12' E 005°18'3 6.4
2019-Apr-20 09:30N 53°11' E 005°23'1 1.9
2019-Apr-20 08:59N 53°10' E 005°25'0 0.0
2019-Apr-20 08:29N 53°10' E 005°25'0 0.0
2019-Apr-20 07:59N 53°10' E 005°25'0 0.0
2019-Apr-20 07:29N 53°10' E 005°25'0 0.0
2019-Apr-20 06:59N 53°10' E 005°25'0 0.0
2019-Apr-20 06:29N 53°10' E 005°25'0 0.0
2019-Apr-20 05:59N 53°10' E 005°25'0 0.0
2019-Apr-20 05:23N 53°10' E 005°25'0 0.0
2019-Apr-20 04:59N 53°10' E 005°25'0 0.0
2019-Apr-20 04:29N 53°10' E 005°25'0 0.0
2019-Apr-20 03:53N 53°10' E 005°25'0 0.0
2019-Apr-20 03:29N 53°10' E 005°25'0 0.0
2019-Apr-20 02:59N 53°10' E 005°25'0 0.0
2019-Apr-20 02:29N 53°10' E 005°25'0 0.0
2019-Apr-20 01:59N 53°10' E 005°25'0 0.0
2019-Apr-20 01:29N 53°10' E 005°25'0 0.0
2019-Apr-20 00:59N 53°10' E 005°25'0 0.0
2019-Apr-20 00:29N 53°10' E 005°25'0 0.0
2019-Apr-19 23:59N 53°10' E 005°25'0 0.0
2019-Apr-19 23:29N 53°10' E 005°25'0 0.0
2019-Apr-19 22:59N 53°10' E 005°25'0 0.0
2019-Apr-19 22:29N 53°10' E 005°25'0 0.0
2019-Apr-19 21:59N 53°10' E 005°25'0 0.0
2019-Apr-19 21:29N 53°10' E 005°25'0 0.0
2019-Apr-19 20:57N 53°10' E 005°25'0 0.0
2019-Apr-19 20:29N 53°10' E 005°25'0 0.0
2019-Apr-19 19:59N 53°10' E 005°25'0 0.0
2019-Apr-19 19:27N 53°10' E 005°25'0 0.0
2019-Apr-19 19:00N 53°10' E 005°25'0 0.8
2019-Apr-19 18:31N 53°11' E 005°24'4 8.0
2019-Apr-19 18:00N 53°07' E 005°22'3 5.5
2019-Apr-19 17:30N 53°04' E 005°20'0 0.7
2019-Apr-19 17:00N 53°04' E 005°20'0 0.0
2019-Apr-19 16:30N 53°04' E 005°20'1 1.8
2019-Apr-19 16:00N 53°03' E 005°21'3 6.2
2019-Apr-19 15:30N 53°00' E 005°20'2 3.6
2019-Apr-19 15:01N 52°58' E 005°20'3 5.9
2019-Apr-19 14:30N 52°55' E 005°20'3 5.5
2019-Apr-19 14:00N 52°53' E 005°20'2 5.0
2019-Apr-19 13:30N 52°50' E 005°19'3 6.0
2019-Apr-19 13:00N 52°47' E 005°21'2 4.1
2019-Apr-19 12:30N 52°46' E 005°24'2 3.7
2019-Apr-19 12:00N 52°45' E 005°26'2 4.8
2019-Apr-19 11:30N 52°43' E 005°28'3 5.7
2019-Apr-19 11:00N 52°41' E 005°31'3 5.8
2019-Apr-19 10:30N 52°38' E 005°34'2 4.1
2019-Apr-19 10:00N 52°37' E 005°37'1 2.2
2019-Apr-19 09:30N 52°37' E 005°38'2 4.0
2019-Apr-19 09:00N 52°36' E 005°41'3 6.8
2019-Apr-19 08:30N 52°35' E 005°47'3 6.3
2019-Apr-19 08:00N 52°35' E 005°52'2 4.1
2019-Apr-19 07:30N 52°34' E 005°55'0 0.0
2019-Apr-19 06:59N 52°34' E 005°55'0 0.0
2019-Apr-19 06:29N 52°34' E 005°55'0 0.0
2019-Apr-19 05:59N 52°34' E 005°55'0 0.0
2019-Apr-19 05:29N 52°34' E 005°55'0 0.0
2019-Apr-19 04:59N 52°34' E 005°55'0 0.0
2019-Apr-19 04:29N 52°34' E 005°55'0 0.0
2019-Apr-19 03:59N 52°34' E 005°55'0 0.0
2019-Apr-19 03:29N 52°34' E 005°55'0 0.0
2019-Apr-19 02:59N 52°34' E 005°55'0 0.0
2019-Apr-19 02:29N 52°34' E 005°55'0 0.0
2019-Apr-19 01:59N 52°34' E 005°55'0 0.0
2019-Apr-19 01:29N 52°34' E 005°55'0 0.0
2019-Apr-19 00:59N 52°34' E 005°55'0 0.0
2019-Apr-19 00:29N 52°34' E 005°55'0 0.0
2019-Apr-18 23:59N 52°34' E 005°55'0 0.0
2019-Apr-18 23:29N 52°34' E 005°55'0 0.0
2019-Apr-18 22:59N 52°34' E 005°55'0 0.0
2019-Apr-18 22:29N 52°34' E 005°55'0 0.0
2019-Apr-18 21:59N 52°34' E 005°55'0 0.0
2019-Apr-18 21:29N 52°34' E 005°55'0 0.0
2019-Apr-18 20:59N 52°34' E 005°55'0 0.0
2019-Apr-18 20:29N 52°34' E 005°55'0 0.0
2019-Apr-18 19:59N 52°34' E 005°55'0 0.0
2019-Apr-18 19:29N 52°34' E 005°55'0 0.0
2019-Apr-18 18:59N 52°34' E 005°55'0 0.0
2019-Apr-18 18:29N 52°34' E 005°55'0 0.0
2019-Apr-18 17:59N 52°34' E 005°55'0 0.0
2019-Apr-18 17:29N 52°34' E 005°55'0 0.0
2019-Apr-18 16:59N 52°34' E 005°55'0 0.0
2019-Apr-18 16:29N 52°34' E 005°55'0 0.0
2019-Apr-18 15:59N 52°34' E 005°55'0 0.0
2019-Apr-18 15:29N 52°34' E 005°55'0 0.0
2019-Apr-18 14:59N 52°34' E 005°55'0 0.0
2019-Apr-18 14:29N 52°34' E 005°55'0 0.0
2019-Apr-18 13:59N 52°34' E 005°55'0 0.0
2019-Apr-18 13:29N 52°34' E 005°55'0 0.0
2019-Apr-18 12:59N 52°34' E 005°55'0 0.0
2019-Apr-18 12:29N 52°34' E 005°55'0 0.0
2019-Apr-18 11:59N 52°34' E 005°55'0 0.0
2019-Apr-18 11:29N 52°34' E 005°55'0 0.0
2019-Apr-18 10:59N 52°34' E 005°55'0 0.0
2019-Apr-18 10:29N 52°34' E 005°55'0 0.0
2019-Apr-18 09:59N 52°34' E 005°55'0 0.0
2019-Apr-18 09:29N 52°34' E 005°55'0 0.0
2019-Apr-18 08:59N 52°34' E 005°55'0 0.0
2019-Apr-18 08:29N 52°34' E 005°55'0 0.0
2019-Apr-18 07:59N 52°34' E 005°55'0 0.0
2019-Apr-18 07:29N 52°34' E 005°55'0 0.0
2019-Apr-18 06:59N 52°34' E 005°55'0 0.0
2019-Apr-18 06:29N 52°34' E 005°55'0 0.0
2019-Apr-18 05:59N 52°34' E 005°55'0 0.0
2019-Apr-18 05:29N 52°34' E 005°55'0 0.0
2019-Apr-18 04:59N 52°34' E 005°55'0 0.0
2019-Apr-18 04:29N 52°34' E 005°55'0 0.0
2019-Apr-18 03:59N 52°34' E 005°55'0 0.0
2019-Apr-18 03:29N 52°34' E 005°55'0 0.0
2019-Apr-18 02:59N 52°34' E 005°55'0 0.0
2019-Apr-18 02:29N 52°34' E 005°55'0 0.0
2019-Apr-18 01:59N 52°34' E 005°55'0 0.0
2019-Apr-18 01:29N 52°34' E 005°55'0 0.0
2019-Apr-18 00:59N 52°34' E 005°55'0 0.0
2019-Apr-18 00:29N 52°34' E 005°55'0 0.0
2019-Apr-17 23:59N 52°34' E 005°55'0 0.0
2019-Apr-17 23:29N 52°34' E 005°55'0 0.0
2019-Apr-17 22:59N 52°34' E 005°55'0 0.0
2019-Apr-17 22:29N 52°34' E 005°55'0 0.0
2019-Apr-17 21:59N 52°34' E 005°55'0 0.0
2019-Apr-17 21:29N 52°34' E 005°55'0 0.0
2019-Apr-17 20:59N 52°34' E 005°55'0 0.0
2019-Apr-17 20:29N 52°34' E 005°55'0 0.0
2019-Apr-17 19:59N 52°34' E 005°55'0 0.0
2019-Apr-17 19:29N 52°34' E 005°55'0 0.0
2019-Apr-17 18:59N 52°34' E 005°55'0 0.0
2019-Apr-17 18:29N 52°34' E 005°55'0 0.0
2019-Apr-17 17:59N 52°34' E 005°55'0 0.0
2019-Apr-17 17:29N 52°34' E 005°55'0 0.0
2019-Apr-17 16:59N 52°34' E 005°55'0 0.0
2019-Apr-17 16:29N 52°34' E 005°55'0 0.0
2019-Apr-17 15:59N 52°34' E 005°55'0 0.0
2019-Apr-17 15:29N 52°34' E 005°55'0 0.0
2019-Apr-17 14:59N 52°34' E 005°55'0 0.0
2019-Apr-17 14:29N 52°34' E 005°55'0 0.0
2019-Apr-17 13:59N 52°34' E 005°55'0 0.0
2019-Apr-17 13:29N 52°34' E 005°55'0 0.0
2019-Apr-17 12:59N 52°34' E 005°55'0 0.0
2019-Apr-17 12:27N 52°34' E 005°55'0 0.0
2019-Apr-17 11:59N 52°34' E 005°55'0 0.0
2019-Apr-17 11:29N 52°34' E 005°55'0 0.0
2019-Apr-17 10:59N 52°34' E 005°55'0 0.0
2019-Apr-17 10:29N 52°34' E 005°55'0 0.0
2019-Apr-17 09:59N 52°34' E 005°55'0 0.0
2019-Apr-17 09:29N 52°34' E 005°55'0 0.0
2019-Apr-17 08:59N 52°34' E 005°55'0 0.0
2019-Apr-17 08:29N 52°34' E 005°55'0 0.0
2019-Apr-17 07:59N 52°34' E 005°55'0 0.0
2019-Apr-17 07:29N 52°34' E 005°55'0 0.0
2019-Apr-17 06:59N 52°34' E 005°55'0 0.0
2019-Apr-17 06:29N 52°34' E 005°55'0 0.0
2019-Apr-17 05:59N 52°34' E 005°55'0 0.0
2019-Apr-17 05:29N 52°34' E 005°55'0 0.0
2019-Apr-17 04:59N 52°34' E 005°55'0 0.0
2019-Apr-17 04:29N 52°34' E 005°55'0 0.0
2019-Apr-17 03:59N 52°34' E 005°55'0 0.0
2019-Apr-17 03:29N 52°34' E 005°55'0 0.0
2019-Apr-17 02:59N 52°34' E 005°55'0 0.0
2019-Apr-17 02:29N 52°34' E 005°55'0 0.0
2019-Apr-17 01:59N 52°34' E 005°55'0 0.0
2019-Apr-17 01:29N 52°34' E 005°55'0 0.0
2019-Apr-17 00:59N 52°34' E 005°55'0 0.0
2019-Apr-17 00:29N 52°34' E 005°55'0 0.0
2019-Apr-16 23:59N 52°34' E 005°55'0 0.0
2019-Apr-16 23:29N 52°34' E 005°55'0 0.0
2019-Apr-16 22:59N 52°34' E 005°55'0 0.0
2019-Apr-16 22:29N 52°34' E 005°55'0 0.0
2019-Apr-16 21:59N 52°34' E 005°55'0 0.0
2019-Apr-16 21:29N 52°34' E 005°55'0 0.0
2019-Apr-16 20:59N 52°34' E 005°55'0 0.0
2019-Apr-16 20:29N 52°34' E 005°55'0 0.0
2019-Apr-16 19:59N 52°34' E 005°55'0 0.0
2019-Apr-16 19:29N 52°34' E 005°55'0 0.0
2019-Apr-16 18:59N 52°34' E 005°55'0 0.0
2019-Apr-16 18:29N 52°34' E 005°55'0 0.0
2019-Apr-16 17:59N 52°34' E 005°55'0 0.0
2019-Apr-16 17:29N 52°34' E 005°55'0 0.0
2019-Apr-16 16:59N 52°34' E 005°55'0 0.0
2019-Apr-16 16:29N 52°34' E 005°55'0 0.0
2019-Apr-16 15:59N 52°34' E 005°55'0 0.0
2019-Apr-16 15:29N 52°34' E 005°55'0 0.0
2019-Apr-16 14:59N 52°34' E 005°55'0 0.0
2019-Apr-16 14:29N 52°34' E 005°55'0 0.0
2019-Apr-16 13:59N 52°34' E 005°55'0 0.0
2019-Apr-16 13:29N 52°34' E 005°55'0 0.0
2019-Apr-16 12:59N 52°34' E 005°55'0 0.0
2019-Apr-16 12:29N 52°34' E 005°55'0 0.0
2019-Apr-16 11:59N 52°34' E 005°55'0 0.0
2019-Apr-16 11:29N 52°34' E 005°55'0 0.0
2019-Apr-16 10:59N 52°34' E 005°55'0 0.0
2019-Apr-16 10:29N 52°34' E 005°55'0 0.0
2019-Apr-16 09:59N 52°34' E 005°55'0 0.0
2019-Apr-16 09:29N 52°34' E 005°55'0 0.0
2019-Apr-16 08:59N 52°34' E 005°55'0 0.0
2019-Apr-16 08:29N 52°34' E 005°55'0 0.0
2019-Apr-16 07:59N 52°34' E 005°55'0 0.0
2019-Apr-16 07:29N 52°34' E 005°55'0 0.0
2019-Apr-16 06:59N 52°34' E 005°55'0 0.0
2019-Apr-16 06:29N 52°34' E 005°55'0 0.0
2019-Apr-16 05:59N 52°34' E 005°55'0 0.0
2019-Apr-16 05:29N 52°34' E 005°55'0 0.0
2019-Apr-16 04:59N 52°34' E 005°55'0 0.0
2019-Apr-16 04:29N 52°34' E 005°55'0 0.0
2019-Apr-16 03:59N 52°34' E 005°55'0 0.0
2019-Apr-16 03:29N 52°34' E 005°55'0 0.0
2019-Apr-16 02:59N 52°34' E 005°55'0 0.0
2019-Apr-16 02:29N 52°34' E 005°55'0 0.0
2019-Apr-16 01:59N 52°34' E 005°55'0 0.0
2019-Apr-16 01:29N 52°34' E 005°55'0 0.0
2019-Apr-16 00:59N 52°34' E 005°55'0 0.0
2019-Apr-16 00:29N 52°34' E 005°55'0 0.0
2019-Apr-15 23:59N 52°34' E 005°55'0 0.0
2019-Apr-15 23:29N 52°34' E 005°55'0 0.0
2019-Apr-15 22:59N 52°34' E 005°55'0 0.0
2019-Apr-15 22:29N 52°34' E 005°55'0 0.0
2019-Apr-15 21:59N 52°34' E 005°55'0 0.0
2019-Apr-15 21:29N 52°34' E 005°55'0 0.0
2019-Apr-15 20:59N 52°34' E 005°55'0 0.0
2019-Apr-15 20:29N 52°34' E 005°55'0 0.0
2019-Apr-15 19:59N 52°34' E 005°55'0 0.0
2019-Apr-15 19:29N 52°34' E 005°55'0 0.0
2019-Apr-15 18:59N 52°34' E 005°55'0 0.0
2019-Apr-15 18:29N 52°34' E 005°55'0 0.0
2019-Apr-15 17:59N 52°34' E 005°55'0 0.0
2019-Apr-15 17:29N 52°34' E 005°55'0 0.0
2019-Apr-15 16:59N 52°34' E 005°55'0 0.0
2019-Apr-15 16:29N 52°34' E 005°55'0 0.0
2019-Apr-15 15:59N 52°34' E 005°55'  
Track history (hours):
 
Tides and Currents Weather Stations Pressure Air Temp Water Temp Dewpoint Dewpoint Depression Visibility Wind Speed Wind Dir Waves Ship Positions

Abel Tasman (Netherlands)

Last reported at 2019-Apr-25 15:43 UTC. Time now 2019-Apr-25 16:24 UTC.
Position N 54°54' E 009°47'.

Length 38 m; draft 2.4 m.

Type: Sailing vessel. MMSI: 245877000.

Date/timePositionNaut miles runAvg speedWind from/ knotsBaromVisibWave heightAir tempDewpointWater temp
2019-Apr-25 15:43N 54°54' E 009°47'1 3.1
2019-Apr-25 15:27N 54°54' E 009°47'3 6.5
2019-Apr-25 15:00N 54°52' E 009°51'4 7.2
2019-Apr-25 14:30N 54°49' E 009°56'3 6.8
2019-Apr-25 14:00N 54°47' E 010°00'2 4.5
2019-Apr-25 13:30N 54°47' E 010°04'3 5.5
2019-Apr-25 13:00N 54°48' E 010°09'3 5.3
2019-Apr-25 12:30N 54°48' E 010°13'2 4.7
2019-Apr-25 12:00N 54°48' E 010°17'2 4.2
2019-Apr-25 11:29N 54°48' E 010°21'2 3.8
2019-Apr-25 11:00N 54°49' E 010°24'1 2.1
2019-Apr-25 10:30N 54°49' E 010°26'1 2.3
2019-Apr-25 09:58N 54°49' E 010°28'1 2.4
2019-Apr-25 09:28N 54°49' E 010°30'1 2.7
2019-Apr-25 09:00N 54°49' E 010°32'2 3.8
2019-Apr-25 08:30N 54°51' E 010°31'0 0.0
2019-Apr-25 08:00N 54°51' E 010°31'0 0.0
2019-Apr-25 07:30N 54°51' E 010°31'0 0.0
2019-Apr-25 07:00N 54°51' E 010°31'0 0.0
2019-Apr-25 06:27N 54°51' E 010°31'0 0.0
2019-Apr-25 06:00N 54°51' E 010°31'0 0.0
2019-Apr-25 05:30N 54°51' E 010°31'0 0.0
2019-Apr-25 05:00N 54°51' E 010°31'0 0.0
2019-Apr-25 04:30N 54°51' E 010°31'0 0.0
2019-Apr-25 04:00N 54°51' E 010°31'0 0.0
2019-Apr-25 03:30N 54°51' E 010°31'0 0.0
2019-Apr-25 03:00N 54°51' E 010°31'0 0.0
2019-Apr-25 02:30N 54°51' E 010°31'0 0.0
2019-Apr-25 02:00N 54°51' E 010°31'0 0.0
2019-Apr-25 01:30N 54°51' E 010°31'0 0.0
2019-Apr-25 01:00N 54°51' E 010°31'0 0.0
2019-Apr-25 00:30N 54°51' E 010°31'0 0.0
2019-Apr-25 00:00N 54°51' E 010°31'0 0.0
2019-Apr-24 23:30N 54°51' E 010°31'0 0.0
2019-Apr-24 23:00N 54°51' E 010°31'0 0.0
2019-Apr-24 22:30N 54°51' E 010°31'0 0.0
2019-Apr-24 22:00N 54°51' E 010°31'0 0.0
2019-Apr-24 21:30N 54°51' E 010°31'0 0.0
2019-Apr-24 20:57N 54°51' E 010°31'0 0.0
2019-Apr-24 20:30N 54°51' E 010°31'0 0.0
2019-Apr-24 19:57N 54°51' E 010°31'0 0.0
2019-Apr-24 19:30N 54°51' E 010°31'0 0.0
2019-Apr-24 18:57N 54°51' E 010°31'0 0.0
2019-Apr-24 18:30N 54°51' E 010°31'0 0.0
2019-Apr-24 18:00N 54°51' E 010°31'0 0.0
2019-Apr-24 17:30N 54°51' E 010°31'0 0.0
2019-Apr-24 17:00N 54°51' E 010°31'0 0.0
2019-Apr-24 16:27N 54°51' E 010°31'0 0.0
2019-Apr-24 16:00N 54°51' E 010°31'0 0.0
2019-Apr-24 15:30N 54°51' E 010°31'0 0.0
2019-Apr-24 14:57N 54°51' E 010°31'0 0.0
2019-Apr-24 14:30N 54°51' E 010°31'0 0.0
2019-Apr-24 14:00N 54°51' E 010°31'1 1.1
2019-Apr-24 13:30N 54°51' E 010°32'2 3.6
2019-Apr-24 13:00N 54°49' E 010°32'3 7.0
2019-Apr-24 12:30N 54°46' E 010°29'3 6.9
2019-Apr-24 12:00N 54°43' E 010°26'3 6.5
2019-Apr-24 11:30N 54°40' E 010°23'3 5.8
2019-Apr-24 11:00N 54°38' E 010°22'3 5.9
2019-Apr-24 10:30N 54°35' E 010°19'3 6.2
2019-Apr-24 10:00N 54°32' E 010°17'2 4.8
2019-Apr-24 09:30N 54°30' E 010°15'2 4.3
2019-Apr-24 09:00N 54°28' E 010°14'3 5.6
2019-Apr-24 08:30N 54°25' E 010°12'1 2.4
2019-Apr-24 08:00N 54°24' E 010°13'0 0.1
2019-Apr-24 07:29N 54°24' E 010°13'0 0.0
2019-Apr-24 07:00N 54°24' E 010°13'0 0.0
2019-Apr-24 06:30N 54°24' E 010°13'0 0.0
2019-Apr-24 06:00N 54°24' E 010°13'0 0.0
2019-Apr-24 05:30N 54°24' E 010°13'0 0.0
2019-Apr-24 05:00N 54°24' E 010°13'0 0.0
2019-Apr-24 04:30N 54°24' E 010°13'0 0.0
2019-Apr-24 04:00N 54°24' E 010°13'0 0.0
2019-Apr-24 03:30N 54°24' E 010°13'0 0.0
2019-Apr-24 03:00N 54°24' E 010°13'0 0.0
2019-Apr-24 02:30N 54°24' E 010°13'0 0.0
2019-Apr-24 02:00N 54°24' E 010°13'0 0.0
2019-Apr-24 01:30N 54°24' E 010°13'0 0.0
2019-Apr-24 01:00N 54°24' E 010°13'0 0.0
2019-Apr-24 00:30N 54°24' E 010°13'0 0.0
2019-Apr-24 00:00N 54°24' E 010°13'0 0.0
2019-Apr-23 23:30N 54°24' E 010°13'0 0.0
2019-Apr-23 23:00N 54°24' E 010°13'0 0.0
2019-Apr-23 22:30N 54°24' E 010°13'0 0.0
2019-Apr-23 22:00N 54°24' E 010°13'0 0.0
2019-Apr-23 21:30N 54°24' E 010°13'0 0.0
2019-Apr-23 21:00N 54°24' E 010°13'0 0.0
2019-Apr-23 20:30N 54°24' E 010°13'0 0.0
2019-Apr-23 20:00N 54°24' E 010°13'0 0.0
2019-Apr-23 19:30N 54°24' E 010°13'0 0.0
2019-Apr-23 19:00N 54°24' E 010°13'0 0.0
2019-Apr-23 18:30N 54°24' E 010°13'0 0.0
2019-Apr-23 18:00N 54°24' E 010°13'0 0.0
2019-Apr-23 17:30N 54°24' E 010°13'0 0.0
2019-Apr-23 17:00N 54°24' E 010°13'0 0.0
2019-Apr-23 16:30N 54°24' E 010°13'0 0.0
2019-Apr-23 16:00N 54°24' E 010°13'0 0.0
2019-Apr-23 15:30N 54°24' E 010°13'0 0.6
2019-Apr-23 15:00N 54°24' E 010°13'1 2.9
2019-Apr-23 14:30N 54°26' E 010°14'3 5.4
2019-Apr-23 14:00N 54°23' E 010°12'2 4.1
2019-Apr-23 13:30N 54°22' E 010°09'0 0.0
2019-Apr-23 13:00N 54°22' E 010°09'0 0.0
2019-Apr-23 12:30N 54°22' E 010°09'0 0.0
2019-Apr-23 12:00N 54°22' E 010°09'0 0.0
2019-Apr-23 11:30N 54°22' E 010°09'0 0.0
2019-Apr-23 11:00N 54°22' E 010°09'0 0.0
2019-Apr-23 10:30N 54°22' E 010°09'0 0.0
2019-Apr-23 10:00N 54°22' E 010°09'0 0.0
2019-Apr-23 09:30N 54°22' E 010°09'0 0.0
2019-Apr-23 09:00N 54°22' E 010°09'0 0.0
2019-Apr-23 08:30N 54°22' E 010°09'0 0.0
2019-Apr-23 08:00N 54°22' E 010°09'0 0.0
2019-Apr-23 07:30N 54°22' E 010°09'0 0.0
2019-Apr-23 07:00N 54°22' E 010°09'0 0.0
2019-Apr-23 06:30N 54°22' E 010°09'0 0.0
2019-Apr-23 06:00N 54°22' E 010°09'0 0.0
2019-Apr-23 05:30N 54°22' E 010°09'0 0.0
2019-Apr-23 05:00N 54°22' E 010°09'0 0.0
2019-Apr-23 04:30N 54°22' E 010°09'0 0.0
2019-Apr-23 04:00N 54°22' E 010°09'0 0.0
2019-Apr-23 03:30N 54°22' E 010°09'0 0.0
2019-Apr-23 03:00N 54°22' E 010°09'0 0.0
2019-Apr-23 02:30N 54°22' E 010°09'0 0.0
2019-Apr-23 02:00N 54°22' E 010°09'0 0.0
2019-Apr-23 01:30N 54°22' E 010°09'0 0.0
2019-Apr-23 01:00N 54°22' E 010°09'0 0.0
2019-Apr-23 00:30N 54°22' E 010°09'0 0.0
2019-Apr-23 00:00N 54°22' E 010°09'0 0.0
2019-Apr-22 23:30N 54°22' E 010°09'0 0.0
2019-Apr-22 23:00N 54°22' E 010°09'0 0.0
2019-Apr-22 22:30N 54°22' E 010°09'0 0.0
2019-Apr-22 22:00N 54°22' E 010°09'0 0.0
2019-Apr-22 21:30N 54°22' E 010°09'0 0.0
2019-Apr-22 21:00N 54°22' E 010°09'0 0.0
2019-Apr-22 20:30N 54°22' E 010°09'0 0.0
2019-Apr-22 20:00N 54°22' E 010°09'0 0.0
2019-Apr-22 19:30N 54°22' E 010°09'0 0.0
2019-Apr-22 19:00N 54°22' E 010°09'0 0.0
2019-Apr-22 18:30N 54°22' E 010°09'0 0.0
2019-Apr-22 18:00N 54°22' E 010°09'0 0.0
2019-Apr-22 17:30N 54°22' E 010°09'0 0.0
2019-Apr-22 17:00N 54°22' E 010°09'0 0.0
2019-Apr-22 16:30N 54°22' E 010°09'0 0.0
2019-Apr-22 16:00N 54°22' E 010°09'0 0.0
2019-Apr-22 15:30N 54°22' E 010°09'0 0.0
2019-Apr-22 15:00N 54°22' E 010°09'0 0.0
2019-Apr-22 14:30N 54°22' E 010°09'0 0.0
2019-Apr-22 14:00N 54°22' E 010°09'0 0.0
2019-Apr-22 13:30N 54°22' E 010°09'0 0.0
2019-Apr-22 13:00N 54°22' E 010°09'0 0.0
2019-Apr-22 12:30N 54°22' E 010°09'0 0.0
2019-Apr-22 12:00N 54°22' E 010°09'0 0.2
2019-Apr-22 11:30N 54°22' E 010°09'0 0.6
2019-Apr-22 11:00N 54°22' E 010°08'2 4.6
2019-Apr-22 10:30N 54°22' E 010°05'3 6.7
2019-Apr-22 10:00N 54°21' E 009°59'3 6.2
2019-Apr-22 09:30N 54°21' E 009°54'4 7.1
2019-Apr-22 09:00N 54°22' E 009°48'4 7.4
2019-Apr-22 08:30N 54°19' E 009°43'2 4.1
2019-Apr-22 08:00N 54°18' E 009°40'0 0.0
2019-Apr-22 07:28N 54°18' E 009°40'0 0.0
2019-Apr-22 06:58N 54°18' E 009°40'0 0.0
2019-Apr-22 06:28N 54°18' E 009°40'0 0.0
2019-Apr-22 05:58N 54°18' E 009°40'0 0.0
2019-Apr-22 05:28N 54°18' E 009°40'0 0.0
2019-Apr-22 04:58N 54°18' E 009°40'0 0.0
2019-Apr-22 04:28N 54°18' E 009°40'0 0.0
2019-Apr-22 03:58N 54°18' E 009°40'0 0.0
2019-Apr-22 03:28N 54°18' E 009°40'0 0.0
2019-Apr-22 02:58N 54°18' E 009°40'0 0.0
2019-Apr-22 02:28N 54°18' E 009°40'0 0.0
2019-Apr-22 01:58N 54°18' E 009°40'0 0.0
2019-Apr-22 01:28N 54°18' E 009°40'0 0.0
2019-Apr-22 00:58N 54°18' E 009°40'0 0.0
2019-Apr-22 00:28N 54°18' E 009°40'0 0.0
2019-Apr-21 23:58N 54°18' E 009°40'0 0.0
2019-Apr-21 23:28N 54°18' E 009°40'0 0.0
2019-Apr-21 22:58N 54°18' E 009°40'0 0.0
2019-Apr-21 22:28N 54°18' E 009°40'0 0.0
2019-Apr-21 21:58N 54°18' E 009°40'0 0.0
2019-Apr-21 21:28N 54°18' E 009°40'0 0.0
2019-Apr-21 20:58N 54°18' E 009°40'0 0.0
2019-Apr-21 20:28N 54°18' E 009°40'0 0.0
2019-Apr-21 19:58N 54°18' E 009°40'0 0.0
2019-Apr-21 19:28N 54°18' E 009°40'0 0.0
2019-Apr-21 18:58N 54°18' E 009°40'1 2.7
2019-Apr-21 18:30N 54°19' E 009°42'2 4.6
2019-Apr-21 18:00N 54°17' E 009°39'4 7.4
2019-Apr-21 17:30N 54°14' E 009°36'4 7.1
2019-Apr-21 17:00N 54°12' E 009°32'4 7.3
2019-Apr-21 16:30N 54°10' E 009°26'4 7.2
2019-Apr-21 16:00N 54°09' E 009°21'3 6.4
2019-Apr-21 15:30N 54°05' E 009°19'3 6.6
2019-Apr-21 15:00N 54°02' E 009°18'4 6.6
2019-Apr-21 14:28N 53°59' E 009°16'3 6.1
2019-Apr-21 13:57N 53°56' E 009°13'1 3.0
2019-Apr-21 13:30N 53°55' E 009°12'2 4.7
2019-Apr-21 13:00N 53°54' E 009°09'2 2.5
2019-Apr-21 12:23N 53°53' E 009°07'4 9.1
2019-Apr-21 11:58N 53°51' E 009°01'5 9.1
2019-Apr-21 11:27N 53°50' E 008°53'4 8.8
2019-Apr-21 11:00N 53°51' E 008°46'7 9.1
2019-Apr-21 10:15N 53°56' E 008°39'2 9.2
2019-Apr-21 10:00N 53°57' E 008°36'4 8.3
2019-Apr-21 09:29N 53°58' E 008°29'3 7.0
2019-Apr-21 09:00N 53°59' E 008°23'3 6.0
2019-Apr-21 08:30N 53°59' E 008°18'4 7.3
2019-Apr-21 08:00N 53°59' E 008°12'4 7.4
2019-Apr-21 07:30N 53°58' E 008°06'4 7.0
2019-Apr-21 07:00N 53°58' E 007°60'3 6.3
2019-Apr-21 06:30N 53°57' E 007°55'3 5.3
2019-Apr-21 06:00N 53°56' E 007°50'2 4.7
2019-Apr-21 05:30N 53°56' E 007°47'2 4.4
2019-Apr-21 05:00N 53°55' E 007°43'2 4.4
2019-Apr-21 04:27N 53°55' E 007°39'2 4.2
2019-Apr-21 04:00N 53°54' E 007°36'61 6.9
2019-Apr-20 19:05N 53°38' E 005°56'1 7.9
2019-Apr-20 18:56N 53°38' E 005°54'11 7.5
2019-Apr-20 17:26N 53°34' E 005°36'9 6.7
2019-Apr-20 16:07N 53°31' E 005°22'3 6.1
2019-Apr-20 15:42N 53°30' E 005°19'2 5.8
2019-Apr-20 15:25N 53°29' E 005°16'2 5.7
2019-Apr-20 15:00N 53°28' E 005°13'3 5.5
2019-Apr-20 14:30N 53°26' E 005°09'3 5.4
2019-Apr-20 14:00N 53°25' E 005°05'3 5.3
2019-Apr-20 13:30N 53°23' E 005°01'2 5.0
2019-Apr-20 13:00N 53°21' E 004°59'2 3.4
2019-Apr-20 12:30N 53°20' E 005°01'3 6.8
2019-Apr-20 12:00N 53°19' E 005°07'3 6.1
2019-Apr-20 11:30N 53°17' E 005°10'3 5.7
2019-Apr-20 11:00N 53°14' E 005°11'3 5.6
2019-Apr-20 10:30N 53°14' E 005°16'2 4.8
2019-Apr-20 10:00N 53°12' E 005°18'3 6.4
2019-Apr-20 09:30N 53°11' E 005°23'1 1.9
2019-Apr-20 08:59N 53°10' E 005°25'0 0.0
2019-Apr-20 08:29N 53°10' E 005°25'0 0.0
2019-Apr-20 07:59N 53°10' E 005°25'0 0.0
2019-Apr-20 07:29N 53°10' E 005°25'0 0.0
2019-Apr-20 06:59N 53°10' E 005°25'0 0.0
2019-Apr-20 06:29N 53°10' E 005°25'0 0.0
2019-Apr-20 05:59N 53°10' E 005°25'0 0.0
2019-Apr-20 05:23N 53°10' E 005°25'0 0.0
2019-Apr-20 04:59N 53°10' E 005°25'0 0.0
2019-Apr-20 04:29N 53°10' E 005°25'0 0.0
2019-Apr-20 03:53N 53°10' E 005°25'0 0.0
2019-Apr-20 03:29N 53°10' E 005°25'0 0.0
2019-Apr-20 02:59N 53°10' E 005°25'0 0.0
2019-Apr-20 02:29N 53°10' E 005°25'0 0.0
2019-Apr-20 01:59N 53°10' E 005°25'0 0.0
2019-Apr-20 01:29N 53°10' E 005°25'0 0.0
2019-Apr-20 00:59N 53°10' E 005°25'0 0.0
2019-Apr-20 00:29N 53°10' E 005°25'0 0.0
2019-Apr-19 23:59N 53°10' E 005°25'0 0.0
2019-Apr-19 23:29N 53°10' E 005°25'0 0.0
2019-Apr-19 22:59N 53°10' E 005°25'0 0.0
2019-Apr-19 22:29N 53°10' E 005°25'0 0.0
2019-Apr-19 21:59N 53°10' E 005°25'0 0.0
2019-Apr-19 21:29N 53°10' E 005°25'0 0.0
2019-Apr-19 20:57N 53°10' E 005°25'0 0.0
2019-Apr-19 20:29N 53°10' E 005°25'0 0.0
2019-Apr-19 19:59N 53°10' E 005°25'0 0.0
2019-Apr-19 19:27N 53°10' E 005°25'0 0.0
2019-Apr-19 19:00N 53°10' E 005°25'0 0.8
2019-Apr-19 18:31N 53°11' E 005°24'4 8.0
2019-Apr-19 18:00N 53°07' E 005°22'3 5.5
2019-Apr-19 17:30N 53°04' E 005°20'0 0.7
2019-Apr-19 17:00N 53°04' E 005°20'0 0.0
2019-Apr-19 16:30N 53°04' E 005°20'1 1.8
2019-Apr-19 16:00N 53°03' E 005°21'3 6.2
2019-Apr-19 15:30N 53°00' E 005°20'2 3.6
2019-Apr-19 15:01N 52°58' E 005°20'3 5.9
2019-Apr-19 14:30N 52°55' E 005°20'3 5.5
2019-Apr-19 14:00N 52°53' E 005°20'2 5.0
2019-Apr-19 13:30N 52°50' E 005°19'3 6.0
2019-Apr-19 13:00N 52°47' E 005°21'2 4.1
2019-Apr-19 12:30N 52°46' E 005°24'2 3.7
2019-Apr-19 12:00N 52°45' E 005°26'2 4.8
2019-Apr-19 11:30N 52°43' E 005°28'3 5.7
2019-Apr-19 11:00N 52°41' E 005°31'3 5.8
2019-Apr-19 10:30N 52°38' E 005°34'2 4.1
2019-Apr-19 10:00N 52°37' E 005°37'1 2.2
2019-Apr-19 09:30N 52°37' E 005°38'2 4.0
2019-Apr-19 09:00N 52°36' E 005°41'3 6.8
2019-Apr-19 08:30N 52°35' E 005°47'3 6.3
2019-Apr-19 08:00N 52°35' E 005°52'2 4.1
2019-Apr-19 07:30N 52°34' E 005°55'0 0.0
2019-Apr-19 06:59N 52°34' E 005°55'0 0.0
2019-Apr-19 06:29N 52°34' E 005°55'0 0.0
2019-Apr-19 05:59N 52°34' E 005°55'0 0.0
2019-Apr-19 05:29N 52°34' E 005°55'0 0.0
2019-Apr-19 04:59N 52°34' E 005°55'0 0.0
2019-Apr-19 04:29N 52°34' E 005°55'0 0.0
2019-Apr-19 03:59N 52°34' E 005°55'0 0.0
2019-Apr-19 03:29N 52°34' E 005°55'0 0.0
2019-Apr-19 02:59N 52°34' E 005°55'0 0.0
2019-Apr-19 02:29N 52°34' E 005°55'0 0.0
2019-Apr-19 01:59N 52°34' E 005°55'0 0.0
2019-Apr-19 01:29N 52°34' E 005°55'0 0.0
2019-Apr-19 00:59N 52°34' E 005°55'0 0.0
2019-Apr-19 00:29N 52°34' E 005°55'0 0.0
2019-Apr-18 23:59N 52°34' E 005°55'0 0.0
2019-Apr-18 23:29N 52°34' E 005°55'0 0.0
2019-Apr-18 22:59N 52°34' E 005°55'0 0.0
2019-Apr-18 22:29N 52°34' E 005°55'0 0.0
2019-Apr-18 21:59N 52°34' E 005°55'0 0.0
2019-Apr-18 21:29N 52°34' E 005°55'0 0.0
2019-Apr-18 20:59N 52°34' E 005°55'0 0.0
2019-Apr-18 20:29N 52°34' E 005°55'0 0.0
2019-Apr-18 19:59N 52°34' E 005°55'0 0.0
2019-Apr-18 19:29N 52°34' E 005°55'0 0.0
2019-Apr-18 18:59N 52°34' E 005°55'0 0.0
2019-Apr-18 18:29N 52°34' E 005°55'0 0.0
2019-Apr-18 17:59N 52°34' E 005°55'0 0.0
2019-Apr-18 17:29N 52°34' E 005°55'0 0.0
2019-Apr-18 16:59N 52°34' E 005°55'0 0.0
2019-Apr-18 16:29N 52°34' E 005°55'0 0.0
2019-Apr-18 15:59N 52°34' E 005°55'0 0.0
2019-Apr-18 15:29N 52°34' E 005°55'0 0.0
2019-Apr-18 14:59N 52°34' E 005°55'0 0.0
2019-Apr-18 14:29N 52°34' E 005°55'0 0.0
2019-Apr-18 13:59N 52°34' E 005°55'0 0.0
2019-Apr-18 13:29N 52°34' E 005°55'0 0.0
2019-Apr-18 12:59N 52°34' E 005°55'0 0.0
2019-Apr-18 12:29N 52°34' E 005°55'0 0.0
2019-Apr-18 11:59N 52°34' E 005°55'0 0.0
2019-Apr-18 11:29N 52°34' E 005°55'0 0.0
2019-Apr-18 10:59N 52°34' E 005°55'0 0.0
2019-Apr-18 10:29N 52°34' E 005°55'0 0.0
2019-Apr-18 09:59N 52°34' E 005°55'0 0.0
2019-Apr-18 09:29N 52°34' E 005°55'0 0.0
2019-Apr-18 08:59N 52°34' E 005°55'0 0.0
2019-Apr-18 08:29N 52°34' E 005°55'0 0.0
2019-Apr-18 07:59N 52°34' E 005°55'0 0.0
2019-Apr-18 07:29N 52°34' E 005°55'0 0.0
2019-Apr-18 06:59N 52°34' E 005°55'0 0.0
2019-Apr-18 06:29N 52°34' E 005°55'0 0.0
2019-Apr-18 05:59N 52°34' E 005°55'0 0.0
2019-Apr-18 05:29N 52°34' E 005°55'0 0.0
2019-Apr-18 04:59N 52°34' E 005°55'0 0.0
2019-Apr-18 04:29N 52°34' E 005°55'0 0.0
2019-Apr-18 03:59N 52°34' E 005°55'0 0.0
2019-Apr-18 03:29N 52°34' E 005°55'0 0.0
2019-Apr-18 02:59N 52°34' E 005°55'0 0.0
2019-Apr-18 02:29N 52°34' E 005°55'0 0.0
2019-Apr-18 01:59N 52°34' E 005°55'0 0.0
2019-Apr-18 01:29N 52°34' E 005°55'0 0.0
2019-Apr-18 00:59N 52°34' E 005°55'0 0.0
2019-Apr-18 00:29N 52°34' E 005°55'0 0.0
2019-Apr-17 23:59N 52°34' E 005°55'0 0.0
2019-Apr-17 23:29N 52°34' E 005°55'0 0.0
2019-Apr-17 22:59N 52°34' E 005°55'0 0.0
2019-Apr-17 22:29N 52°34' E 005°55'0 0.0
2019-Apr-17 21:59N 52°34' E 005°55'0 0.0
2019-Apr-17 21:29N 52°34' E 005°55'0 0.0
2019-Apr-17 20:59N 52°34' E 005°55'0 0.0
2019-Apr-17 20:29N 52°34' E 005°55'0 0.0
2019-Apr-17 19:59N 52°34' E 005°55'0 0.0
2019-Apr-17 19:29N 52°34' E 005°55'0 0.0
2019-Apr-17 18:59N 52°34' E 005°55'0 0.0
2019-Apr-17 18:29N 52°34' E 005°55'0 0.0
2019-Apr-17 17:59N 52°34' E 005°55'0 0.0
2019-Apr-17 17:29N 52°34' E 005°55'0 0.0
2019-Apr-17 16:59N 52°34' E 005°55'0 0.0
2019-Apr-17 16:29N 52°34' E 005°55'0 0.0
2019-Apr-17 15:59N 52°34' E 005°55'0 0.0
2019-Apr-17 15:29N 52°34' E 005°55'0 0.0
2019-Apr-17 14:59N 52°34' E 005°55'0 0.0
2019-Apr-17 14:29N 52°34' E 005°55'0 0.0
2019-Apr-17 13:59N 52°34' E 005°55'0 0.0
2019-Apr-17 13:29N 52°34' E 005°55'0 0.0
2019-Apr-17 12:59N 52°34' E 005°55'0 0.0
2019-Apr-17 12:27N 52°34' E 005°55'0 0.0
2019-Apr-17 11:59N 52°34' E 005°55'0 0.0
2019-Apr-17 11:29N 52°34' E 005°55'0 0.0
2019-Apr-17 10:59N 52°34' E 005°55'0 0.0
2019-Apr-17 10:29N 52°34' E 005°55'0 0.0
2019-Apr-17 09:59N 52°34' E 005°55'0 0.0
2019-Apr-17 09:29N 52°34' E 005°55'0 0.0
2019-Apr-17 08:59N 52°34' E 005°55'0 0.0
2019-Apr-17 08:29N 52°34' E 005°55'0 0.0
2019-Apr-17 07:59N 52°34' E 005°55'0 0.0
2019-Apr-17 07:29N 52°34' E 005°55'0 0.0
2019-Apr-17 06:59N 52°34' E 005°55'0 0.0
2019-Apr-17 06:29N 52°34' E 005°55'0 0.0
2019-Apr-17 05:59N 52°34' E 005°55'0 0.0
2019-Apr-17 05:29N 52°34' E 005°55'0 0.0
2019-Apr-17 04:59N 52°34' E 005°55'0 0.0
2019-Apr-17 04:29N 52°34' E 005°55'0 0.0
2019-Apr-17 03:59N 52°34' E 005°55'0 0.0
2019-Apr-17 03:29N 52°34' E 005°55'0 0.0
2019-Apr-17 02:59N 52°34' E 005°55'0 0.0
2019-Apr-17 02:29N 52°34' E 005°55'0 0.0
2019-Apr-17 01:59N 52°34' E 005°55'0 0.0
2019-Apr-17 01:29N 52°34' E 005°55'0 0.0
2019-Apr-17 00:59N 52°34' E 005°55'0 0.0
2019-Apr-17 00:29N 52°34' E 005°55'0 0.0
2019-Apr-16 23:59N 52°34' E 005°55'0 0.0
2019-Apr-16 23:29N 52°34' E 005°55'0 0.0
2019-Apr-16 22:59N 52°34' E 005°55'0 0.0
2019-Apr-16 22:29N 52°34' E 005°55'0 0.0
2019-Apr-16 21:59N 52°34' E 005°55'0 0.0
2019-Apr-16 21:29N 52°34' E 005°55'0 0.0
2019-Apr-16 20:59N 52°34' E 005°55'0 0.0
2019-Apr-16 20:29N 52°34' E 005°55'0 0.0
2019-Apr-16 19:59N 52°34' E 005°55'0 0.0
2019-Apr-16 19:29N 52°34' E 005°55'0 0.0
2019-Apr-16 18:59N 52°34' E 005°55'0 0.0
2019-Apr-16 18:29N 52°34' E 005°55'0 0.0
2019-Apr-16 17:59N 52°34' E 005°55'0 0.0
2019-Apr-16 17:29N 52°34' E 005°55'0 0.0
2019-Apr-16 16:59N 52°34' E 005°55'0 0.0
2019-Apr-16 16:29N 52°34' E 005°55'0 0.0
2019-Apr-16 15:59N 52°34' E 005°55'0 0.0
2019-Apr-16 15:29N 52°34' E 005°55'0 0.0
2019-Apr-16 14:59N 52°34' E 005°55'0 0.0
2019-Apr-16 14:29N 52°34' E 005°55'0 0.0
2019-Apr-16 13:59N 52°34' E 005°55'0 0.0
2019-Apr-16 13:29N 52°34' E 005°55'0 0.0
2019-Apr-16 12:59N 52°34' E 005°55'0 0.0
2019-Apr-16 12:29N 52°34' E 005°55'0 0.0
2019-Apr-16 11:59N 52°34' E 005°55'0 0.0
2019-Apr-16 11:29N 52°34' E 005°55'0 0.0
2019-Apr-16 10:59N 52°34' E 005°55'0 0.0
2019-Apr-16 10:29N 52°34' E 005°55'0 0.0
2019-Apr-16 09:59N 52°34' E 005°55'0 0.0
2019-Apr-16 09:29N 52°34' E 005°55'0 0.0
2019-Apr-16 08:59N 52°34' E 005°55'0 0.0
2019-Apr-16 08:29N 52°34' E 005°55'0 0.0
2019-Apr-16 07:59N 52°34' E 005°55'0 0.0
2019-Apr-16 07:29N 52°34' E 005°55'0 0.0
2019-Apr-16 06:59N 52°34' E 005°55'0 0.0
2019-Apr-16 06:29N 52°34' E 005°55'0 0.0
2019-Apr-16 05:59N 52°34' E 005°55'0 0.0
2019-Apr-16 05:29N 52°34' E 005°55'0 0.0
2019-Apr-16 04:59N 52°34' E 005°55'0 0.0
2019-Apr-16 04:29N 52°34' E 005°55'0 0.0
2019-Apr-16 03:59N 52°34' E 005°55'0 0.0
2019-Apr-16 03:29N 52°34' E 005°55'0 0.0
2019-Apr-16 02:59N 52°34' E 005°55'0 0.0
2019-Apr-16 02:29N 52°34' E 005°55'0 0.0
2019-Apr-16 01:59N 52°34' E 005°55'0 0.0
2019-Apr-16 01:29N 52°34' E 005°55'0 0.0
2019-Apr-16 00:59N 52°34' E 005°55'0 0.0
2019-Apr-16 00:29N 52°34' E 005°55'0 0.0
2019-Apr-15 23:59N 52°34' E 005°55'0 0.0
2019-Apr-15 23:29N 52°34' E 005°55'0 0.0
2019-Apr-15 22:59N 52°34' E 005°55'0 0.0
2019-Apr-15 22:29N 52°34' E 005°55'0 0.0
2019-Apr-15 21:59N 52°34' E 005°55'0 0.0
2019-Apr-15 21:29N 52°34' E 005°55'0 0.0
2019-Apr-15 20:59N 52°34' E 005°55'0 0.0
2019-Apr-15 20:29N 52°34' E 005°55'0 0.0
2019-Apr-15 19:59N 52°34' E 005°55'0 0.0
2019-Apr-15 19:29N 52°34' E 005°55'0 0.0
2019-Apr-15 18:59N 52°34' E 005°55'0 0.0
2019-Apr-15 18:29N 52°34' E 005°55'0 0.0
2019-Apr-15 17:59N 52°34' E 005°55'0 0.0
2019-Apr-15 17:29N 52°34' E 005°55'0 0.0
2019-Apr-15 16:59N 52°34' E 005°55'0 0.0
2019-Apr-15 16:29N 52°34' E 005°55'0 0.0
2019-Apr-15 15:59N 52°34' E 005°55'  

Dump ship's entire track history